createdAt,value
2016-12-11T00:00:10.665Z,916.59
2016-12-11T00:00:40.349Z,916.55
2016-12-11T00:01:08.633Z,916.61
2016-12-11T00:01:36.785Z,916.62
2016-12-11T00:02:06.123Z,916.6
2016-12-11T00:02:34.401Z,916.6
2016-12-11T00:03:02.700Z,916.58
2016-12-11T00:03:31.180Z,916.54
2016-12-11T00:04:00.829Z,916.56
2016-12-11T00:04:28.953Z,916.57
2016-12-11T00:04:57.353Z,916.58
2016-12-11T00:05:25.541Z,916.57
2016-12-11T00:05:55.610Z,916.59
2016-12-11T00:06:24.129Z,916.57
2016-12-11T00:06:52.903Z,916.58
2016-12-11T00:07:21.650Z,916.57
2016-12-11T00:07:51.113Z,916.58
2016-12-11T00:08:19.054Z,916.57
2016-12-11T00:08:47.361Z,916.57
2016-12-11T00:09:17.456Z,916.54
2016-12-11T00:09:45.909Z,916.57
2016-12-11T00:10:14.757Z,916.55
2016-12-11T00:10:43.618Z,916.56
2016-12-11T00:11:11.661Z,916.58
2016-12-11T00:11:40.120Z,916.59
2016-12-11T00:12:08.511Z,916.52
2016-12-11T00:12:37.653Z,916.56
2016-12-11T00:13:05.824Z,916.56
2016-12-11T00:13:34.164Z,916.6
2016-12-11T00:14:03.562Z,916.58
2016-12-11T00:14:32.488Z,916.58
2016-12-11T00:15:00.941Z,916.55
2016-12-11T00:15:30.262Z,916.59
2016-12-11T00:16:00.189Z,916.56
2016-12-11T00:16:29.738Z,916.57
2016-12-11T00:16:58.184Z,916.62
2016-12-11T00:17:27.014Z,916.66
2016-12-11T00:17:55.561Z,916.66
2016-12-11T00:18:24.682Z,916.72
2016-12-11T00:18:53.623Z,916.72
2016-12-11T00:19:21.969Z,916.71
2016-12-11T00:19:51.135Z,916.75
2016-12-11T00:20:20.246Z,916.79
2016-12-11T00:20:48.666Z,916.75
2016-12-11T00:21:18.095Z,916.74
2016-12-11T00:21:46.402Z,916.78
2016-12-11T00:22:14.559Z,916.8
2016-12-11T00:22:43.331Z,916.85
2016-12-11T00:23:12.665Z,916.82
2016-12-11T00:23:41.018Z,916.83
2016-12-11T00:24:10.023Z,916.84
2016-12-11T00:24:39.268Z,916.8
2016-12-11T00:25:09.513Z,916.83
2016-12-11T00:25:38.836Z,916.83
2016-12-11T00:26:06.987Z,916.86
2016-12-11T00:26:36.062Z,916.88
2016-12-11T00:27:05.598Z,916.83
2016-12-11T00:27:34.183Z,916.85
2016-12-11T00:28:03.105Z,916.85
2016-12-11T00:28:32.326Z,916.88
2016-12-11T00:29:01.541Z,916.88
2016-12-11T00:29:31.907Z,916.89
2016-12-11T00:30:00.268Z,916.88
2016-12-11T00:30:28.252Z,916.92
2016-12-11T00:30:56.630Z,916.92
2016-12-11T00:31:25.195Z,916.98
2016-12-11T00:31:54.201Z,916.98
2016-12-11T00:32:22.644Z,916.95
2016-12-11T00:32:51.088Z,916.95
2016-12-11T00:33:19.644Z,916.96
2016-12-11T00:34:26.136Z,916.98
2016-12-11T00:34:54.579Z,916.99
2016-12-11T00:35:22.854Z,916.99
2016-12-11T00:35:51.257Z,916.99
2016-12-11T00:36:19.175Z,916.97
2016-12-11T00:36:47.905Z,916.92
2016-12-11T00:37:16.355Z,916.94
2016-12-11T00:37:46.103Z,916.93
2016-12-11T00:38:15.016Z,916.91
2016-12-11T00:38:43.403Z,916.91
2016-12-11T00:39:12.583Z,916.93
2016-12-11T00:39:41.421Z,916.94
2016-12-11T00:40:10.195Z,916.91
2016-12-11T00:40:40.558Z,916.91
2016-12-11T00:41:09.082Z,916.88
2016-12-11T00:41:37.925Z,916.87
2016-12-11T00:42:06.527Z,916.88
2016-12-11T00:42:34.704Z,916.89
2016-12-11T00:43:05.587Z,916.83
2016-12-11T00:43:35.842Z,916.91
2016-12-11T00:44:04.751Z,916.88
2016-12-11T00:44:33.718Z,916.86
2016-12-11T00:45:02.021Z,916.86
2016-12-11T00:45:30.949Z,916.83
2016-12-11T00:46:00.360Z,916.85
2016-12-11T00:46:28.750Z,916.86
2016-12-11T00:46:58.927Z,916.89
2016-12-11T00:47:27.694Z,916.87
2016-12-11T00:47:56.761Z,916.86
2016-12-11T00:48:25.144Z,916.88
2016-12-11T00:48:53.147Z,916.85
2016-12-11T00:49:21.866Z,916.9
2016-12-11T00:49:50.105Z,916.86
2016-12-11T00:50:18.867Z,916.83
2016-12-11T00:50:47.361Z,916.84
2016-12-11T00:51:15.669Z,916.81
2016-12-11T00:51:44.172Z,916.82
2016-12-11T00:52:12.908Z,916.84
2016-12-11T00:52:42.537Z,916.8
2016-12-11T00:53:11.059Z,916.84
2016-12-11T00:53:40.893Z,916.83
2016-12-11T00:54:09.375Z,916.78
2016-12-11T00:54:38.927Z,916.83
2016-12-11T00:55:08.019Z,916.75
2016-12-11T00:55:36.442Z,916.72
2016-12-11T00:56:04.434Z,916.74
2016-12-11T00:56:32.960Z,916.7
2016-12-11T00:57:01.821Z,916.72
2016-12-11T00:57:30.224Z,916.71
2016-12-11T00:57:58.926Z,916.67
2016-12-11T00:58:28.083Z,916.69
2016-12-11T00:58:57.580Z,916.71
2016-12-11T00:59:26.799Z,916.68
2016-12-11T00:59:55.063Z,916.69
2016-12-11T01:00:23.627Z,916.66
2016-12-11T01:00:51.999Z,916.68
2016-12-11T01:01:20.899Z,916.73
2016-12-11T01:01:48.944Z,916.73
2016-12-11T01:02:17.610Z,916.67
2016-12-11T01:02:46.033Z,916.72
2016-12-11T01:03:15.693Z,916.72
2016-12-11T01:03:44.641Z,916.7
2016-12-11T01:04:12.795Z,916.73
2016-12-11T01:04:43.114Z,916.74
2016-12-11T01:05:12.426Z,916.73
2016-12-11T01:05:41.986Z,916.72
2016-12-11T01:06:10.793Z,916.75
2016-12-11T01:06:40.547Z,916.78
2016-12-11T01:07:09.108Z,916.76
2016-12-11T01:07:38.004Z,916.75
2016-12-11T01:08:07.185Z,916.79
2016-12-11T01:08:36.114Z,916.79
2016-12-11T01:09:04.409Z,916.81
2016-12-11T01:09:32.733Z,916.79
2016-12-11T01:10:00.532Z,916.78
2016-12-11T01:10:28.799Z,916.75
2016-12-11T01:10:57.283Z,916.75
2016-12-11T01:11:25.569Z,916.74
2016-12-11T01:11:54.376Z,916.76
2016-12-11T01:12:23.747Z,916.71
2016-12-11T01:12:53.004Z,916.72
2016-12-11T01:13:21.455Z,916.69
2016-12-11T01:14:28.421Z,916.68
2016-12-11T01:14:56.841Z,916.61
2016-12-11T01:15:26.383Z,916.62
2016-12-11T01:15:54.911Z,916.59
2016-12-11T01:16:23.245Z,916.57
2016-12-11T01:16:52.477Z,916.54
2016-12-11T01:17:20.800Z,916.58
2016-12-11T01:17:51.209Z,916.58
2016-12-11T01:18:19.862Z,916.56
2016-12-11T01:18:48.837Z,916.58
2016-12-11T01:19:17.335Z,916.61
2016-12-11T01:19:45.513Z,916.62
2016-12-11T01:20:13.459Z,916.54
2016-12-11T01:20:42.922Z,916.56
2016-12-11T01:21:12.394Z,916.57
2016-12-11T01:21:40.837Z,916.56
2016-12-11T01:22:09.429Z,916.59
2016-12-11T01:22:38.188Z,916.59
2016-12-11T01:23:07.723Z,916.6
2016-12-11T01:23:37.159Z,916.59
2016-12-11T01:24:05.329Z,916.59
2016-12-11T01:24:34.162Z,916.63
2016-12-11T01:25:02.934Z,916.6
2016-12-11T01:25:31.479Z,916.58
2016-12-11T01:26:01.634Z,916.56
2016-12-11T01:26:30.085Z,916.58
2016-12-11T01:26:58.574Z,916.59
2016-12-11T01:27:26.794Z,916.61
2016-12-11T01:27:55.181Z,916.61
2016-12-11T01:28:23.859Z,916.61
2016-12-11T01:28:52.617Z,916.6
2016-12-11T01:29:20.919Z,916.62
2016-12-11T01:29:50.351Z,916.56
2016-12-11T01:30:19.711Z,916.58
2016-12-11T01:30:48.948Z,916.54
2016-12-11T01:31:17.393Z,916.61
2016-12-11T01:31:45.454Z,916.56
2016-12-11T01:32:15.052Z,916.58
2016-12-11T01:32:43.803Z,916.61
2016-12-11T01:33:12.207Z,916.58
2016-12-11T01:33:41.207Z,916.64
2016-12-11T01:34:09.681Z,916.6
2016-12-11T01:34:39.119Z,916.62
2016-12-11T01:35:08.816Z,916.65
2016-12-11T01:35:37.613Z,916.66
2016-12-11T01:36:07.136Z,916.66
2016-12-11T01:36:36.215Z,916.66
2016-12-11T01:37:05.553Z,916.68
2016-12-11T01:37:34.396Z,916.68
2016-12-11T01:38:02.967Z,916.69
2016-12-11T01:38:31.150Z,916.68
2016-12-11T01:38:59.387Z,916.73
2016-12-11T01:39:28.187Z,916.64
2016-12-11T01:39:57.914Z,916.65
2016-12-11T01:40:27.495Z,916.67
2016-12-11T01:40:56.577Z,916.67
2016-12-11T01:41:25.224Z,916.69
2016-12-11T01:41:53.831Z,916.64
2016-12-11T01:42:23.827Z,916.68
2016-12-11T01:42:52.730Z,916.64
2016-12-11T01:43:20.883Z,916.67
2016-12-11T01:43:49.812Z,916.63
2016-12-11T01:44:18.549Z,916.66
2016-12-11T01:44:46.787Z,916.68
2016-12-11T01:45:16.521Z,916.66
2016-12-11T01:45:45.179Z,916.64
2016-12-11T01:46:13.567Z,916.64
2016-12-11T01:46:42.073Z,916.63
2016-12-11T01:47:11.123Z,916.61
2016-12-11T01:47:41.498Z,916.64
2016-12-11T01:48:10.870Z,916.58
2016-12-11T01:48:39.592Z,916.59
2016-12-11T01:49:08.063Z,916.57
2016-12-11T01:49:37.971Z,916.57
2016-12-11T01:50:06.723Z,916.57
2016-12-11T01:50:34.842Z,916.57
2016-12-11T01:51:03.129Z,916.61
2016-12-11T01:51:31.683Z,916.58
2016-12-11T01:51:59.645Z,916.54
2016-12-11T01:52:29.406Z,916.55
2016-12-11T01:52:57.380Z,916.55
2016-12-11T01:53:26.138Z,916.57
2016-12-11T01:54:32.418Z,916.58
2016-12-11T01:55:00.629Z,916.54
2016-12-11T01:55:29.056Z,916.54
2016-12-11T01:55:57.783Z,916.52
2016-12-11T01:56:26.142Z,916.57
2016-12-11T01:56:54.818Z,916.55
2016-12-11T01:57:24.008Z,916.56
2016-12-11T01:57:52.420Z,916.57
2016-12-11T01:58:21.547Z,916.56
2016-12-11T01:58:50.320Z,916.6
2016-12-11T01:59:19.879Z,916.54
2016-12-11T01:59:48.379Z,916.55
2016-12-11T02:00:16.538Z,916.53
2016-12-11T02:00:45.381Z,916.53
2016-12-11T02:01:14.082Z,916.54
2016-12-11T02:01:42.901Z,916.54
2016-12-11T02:02:12.387Z,916.51
2016-12-11T02:02:41.854Z,916.52
2016-12-11T02:03:11.345Z,916.48
2016-12-11T02:03:39.877Z,916.47
2016-12-11T02:04:08.895Z,916.39
2016-12-11T02:04:38.105Z,916.44
2016-12-11T02:05:06.864Z,916.46
2016-12-11T02:05:35.186Z,916.44
2016-12-11T02:06:03.263Z,916.46
2016-12-11T02:06:31.660Z,916.43
2016-12-11T02:07:00.191Z,916.44
2016-12-11T02:07:29.467Z,916.44
2016-12-11T02:07:58.368Z,916.43
2016-12-11T02:08:27.069Z,916.44
2016-12-11T02:08:55.782Z,916.41
2016-12-11T02:09:25.878Z,916.44
2016-12-11T02:09:55.056Z,916.38
2016-12-11T02:10:23.236Z,916.36
2016-12-11T02:10:51.530Z,916.33
2016-12-11T02:11:20.108Z,916.35
2016-12-11T02:11:50.557Z,916.38
2016-12-11T02:12:20.595Z,916.33
2016-12-11T02:12:49.776Z,916.33
2016-12-11T02:13:18.240Z,916.32
2016-12-11T02:13:47.262Z,916.31
2016-12-11T02:14:15.227Z,916.36
2016-12-11T02:14:43.350Z,916.18
2016-12-11T02:15:11.605Z,916.25
2016-12-11T02:15:39.698Z,916.3
2016-12-11T02:16:08.433Z,916.33
2016-12-11T02:16:38.450Z,916.26
2016-12-11T02:17:07.766Z,916.33
2016-12-11T02:17:37.014Z,916.19
2016-12-11T02:18:05.322Z,916.18
2016-12-11T02:18:34.075Z,916.18
2016-12-11T02:19:02.993Z,916.18
2016-12-11T02:19:31.128Z,916.19
2016-12-11T02:20:01.033Z,916.14
2016-12-11T02:20:29.815Z,916.18
2016-12-11T02:20:59.362Z,916.16
2016-12-11T02:21:28.025Z,916.17
2016-12-11T02:21:57.201Z,916.19
2016-12-11T02:22:25.693Z,916.14
2016-12-11T02:22:53.858Z,916.12
2016-12-11T02:23:22.113Z,916.15
2016-12-11T02:23:50.973Z,916.14
2016-12-11T02:24:19.110Z,916.11
2016-12-11T02:24:48.213Z,916.12
2016-12-11T02:25:16.647Z,916.14
2016-12-11T02:25:46.246Z,916.09
2016-12-11T02:26:14.570Z,916.07
2016-12-11T02:26:43.529Z,916.08
2016-12-11T02:27:12.998Z,916.06
2016-12-11T02:27:42.071Z,916.06
2016-12-11T02:28:11.485Z,916.04
2016-12-11T02:28:41.016Z,916.05
2016-12-11T02:29:09.468Z,916.05
2016-12-11T02:29:37.767Z,916.03
2016-12-11T02:30:07.031Z,915.99
2016-12-11T02:30:35.249Z,915.98
2016-12-11T02:31:03.606Z,916.01
2016-12-11T02:31:31.686Z,916.03
2016-12-11T02:32:01.476Z,916.04
2016-12-11T02:32:29.541Z,916.03
2016-12-11T02:32:58.751Z,916.04
2016-12-11T02:33:27.337Z,916.02
2016-12-11T02:34:35.035Z,916.06
2016-12-11T02:35:03.251Z,916.01
2016-12-11T02:35:31.550Z,916.02
2016-12-11T02:36:01.049Z,916.01
2016-12-11T02:36:29.862Z,916.02
2016-12-11T02:36:59.580Z,916.03
2016-12-11T02:37:29.170Z,916.03
2016-12-11T02:37:57.340Z,915.98
2016-12-11T02:38:26.105Z,915.94
2016-12-11T02:38:54.570Z,915.98
2016-12-11T02:39:23.163Z,915.95
2016-12-11T02:39:51.635Z,915.94
2016-12-11T02:40:20.985Z,915.91
2016-12-11T02:40:50.096Z,915.84
2016-12-11T02:41:19.270Z,915.9
2016-12-11T02:41:47.540Z,915.93
2016-12-11T02:42:16.871Z,915.92
2016-12-11T02:42:45.592Z,915.92
2016-12-11T02:43:13.568Z,915.91
2016-12-11T02:43:41.542Z,915.9
2016-12-11T02:44:10.143Z,915.91
2016-12-11T02:44:38.206Z,915.91
2016-12-11T02:45:06.358Z,915.88
2016-12-11T02:45:35.017Z,915.9
2016-12-11T02:46:04.427Z,915.82
2016-12-11T02:46:33.079Z,915.86
2016-12-11T02:47:02.474Z,915.85
2016-12-11T02:47:30.782Z,915.89
2016-12-11T02:48:00.662Z,915.82
2016-12-11T02:48:29.980Z,915.87
2016-12-11T02:48:58.407Z,915.9
2016-12-11T02:49:27.613Z,915.93
2016-12-11T02:49:56.929Z,915.88
2016-12-11T02:50:25.132Z,915.91
2016-12-11T02:50:55.004Z,915.88
2016-12-11T02:51:24.452Z,915.9
2016-12-11T02:51:53.764Z,915.97
2016-12-11T02:52:22.115Z,915.94
2016-12-11T02:52:51.127Z,915.94
2016-12-11T02:53:20.331Z,915.93
2016-12-11T02:53:48.674Z,915.94
2016-12-11T02:54:18.942Z,915.94
2016-12-11T02:54:48.401Z,915.92
2016-12-11T02:55:16.584Z,915.93
2016-12-11T02:55:44.901Z,915.92
2016-12-11T02:56:14.047Z,915.93
2016-12-11T02:56:43.837Z,915.92
2016-12-11T02:57:11.976Z,915.87
2016-12-11T02:57:40.235Z,915.9
2016-12-11T02:58:09.520Z,915.84
2016-12-11T02:58:39.693Z,915.84
2016-12-11T02:59:07.808Z,915.85
2016-12-11T02:59:36.538Z,915.79
2016-12-11T03:00:05.841Z,915.82
2016-12-11T03:00:34.950Z,915.78
2016-12-11T03:01:03.428Z,915.84
2016-12-11T03:01:31.773Z,915.79
2016-12-11T03:02:00.776Z,915.75
2016-12-11T03:02:29.828Z,915.75
2016-12-11T03:02:59.237Z,915.68
2016-12-11T03:03:27.691Z,915.69
2016-12-11T03:03:56.093Z,915.75
2016-12-11T03:04:25.783Z,915.62
2016-12-11T03:04:54.467Z,915.68
2016-12-11T03:05:22.959Z,915.67
2016-12-11T03:05:52.242Z,915.68
2016-12-11T03:06:20.764Z,915.67
2016-12-11T03:06:51.185Z,915.68
2016-12-11T03:07:20.032Z,915.6
2016-12-11T03:07:48.711Z,915.61
2016-12-11T03:08:18.413Z,915.61
2016-12-11T03:08:46.811Z,915.55
2016-12-11T03:09:15.174Z,915.56
2016-12-11T03:09:44.186Z,915.56
2016-12-11T03:10:12.407Z,915.57
2016-12-11T03:10:40.606Z,915.57
2016-12-11T03:11:09.132Z,915.56
2016-12-11T03:11:37.876Z,915.54
2016-12-11T03:12:06.070Z,915.58
2016-12-11T03:12:34.647Z,915.6
2016-12-11T03:13:03.096Z,915.56
2016-12-11T03:13:31.331Z,915.58
2016-12-11T03:14:38.083Z,915.59
2016-12-11T03:15:07.544Z,915.52
2016-12-11T03:15:35.614Z,915.54
2016-12-11T03:16:03.953Z,915.56
2016-12-11T03:16:32.729Z,915.57
2016-12-11T03:17:01.854Z,915.5
2016-12-11T03:17:30.363Z,915.56
2016-12-11T03:17:58.762Z,915.49
2016-12-11T03:18:26.805Z,915.48
2016-12-11T03:18:56.886Z,915.47
2016-12-11T03:19:25.356Z,915.46
2016-12-11T03:19:54.955Z,915.47
2016-12-11T03:20:24.433Z,915.5
2016-12-11T03:20:52.569Z,915.49
2016-12-11T03:21:20.999Z,915.45
2016-12-11T03:21:49.517Z,915.45
2016-12-11T03:22:18.083Z,915.45
2016-12-11T03:22:46.212Z,915.41
2016-12-11T03:23:14.610Z,915.42
2016-12-11T03:23:43.793Z,915.42
2016-12-11T03:24:12.217Z,915.43
2016-12-11T03:24:40.650Z,915.39
2016-12-11T03:25:09.102Z,915.48
2016-12-11T03:25:37.806Z,915.38
2016-12-11T03:26:06.062Z,915.32
2016-12-11T03:26:33.993Z,915.39
2016-12-11T03:27:03.327Z,915.39
2016-12-11T03:27:31.502Z,915.4
2016-12-11T03:28:00.048Z,915.39
2016-12-11T03:28:28.177Z,915.42
2016-12-11T03:28:56.735Z,915.38
2016-12-11T03:29:25.068Z,915.39
2016-12-11T03:29:53.875Z,915.37
2016-12-11T03:30:22.612Z,915.36
2016-12-11T03:30:51.767Z,915.26
2016-12-11T03:31:20.136Z,915.18
2016-12-11T03:31:48.508Z,915.35
2016-12-11T03:32:16.746Z,915.4
2016-12-11T03:32:45.113Z,915.35
2016-12-11T03:33:13.578Z,915.37
2016-12-11T03:33:41.909Z,915.37
2016-12-11T03:34:10.354Z,915.39
2016-12-11T03:34:38.742Z,915.36
2016-12-11T03:35:06.795Z,915.36
2016-12-11T03:35:36.129Z,915.33
2016-12-11T03:36:04.439Z,915.21
2016-12-11T03:36:34.178Z,915.35
2016-12-11T03:37:02.652Z,915.3
2016-12-11T03:37:31.331Z,915.39
2016-12-11T03:38:00.903Z,915.26
2016-12-11T03:38:29.301Z,915.34
2016-12-11T03:38:57.789Z,915.28
2016-12-11T03:39:26.238Z,915.27
2016-12-11T03:39:55.421Z,915.31
2016-12-11T03:40:23.878Z,915.29
2016-12-11T03:40:53.023Z,915.32
2016-12-11T03:41:21.324Z,915.29
2016-12-11T03:41:49.881Z,915.3
2016-12-11T03:42:19.308Z,915.3
2016-12-11T03:42:48.829Z,915.22
2016-12-11T03:43:17.350Z,915.13
2016-12-11T03:43:45.697Z,915.18
2016-12-11T03:44:14.312Z,915.25
2016-12-11T03:44:43.402Z,915.23
2016-12-11T03:45:12.121Z,915.17
2016-12-11T03:45:40.575Z,915.17
2016-12-11T03:46:08.674Z,915.22
2016-12-11T03:46:37.105Z,915.26
2016-12-11T03:47:06.558Z,915.26
2016-12-11T03:47:35.945Z,915.22
2016-12-11T03:48:04.324Z,915.19
2016-12-11T03:48:33.050Z,915.18
2016-12-11T03:49:02.172Z,915.28
2016-12-11T03:49:31.136Z,915.22
2016-12-11T03:50:01.406Z,915.19
2016-12-11T03:50:29.982Z,915.26
2016-12-11T03:50:59.025Z,915.29
2016-12-11T03:51:27.619Z,915.23
2016-12-11T03:51:56.719Z,915.24
2016-12-11T03:52:25.098Z,915.27
2016-12-11T03:52:53.283Z,915.26
2016-12-11T03:53:22.236Z,915.22
2016-12-11T03:54:29.014Z,915.27
2016-12-11T03:54:57.175Z,915.26
2016-12-11T03:55:25.558Z,915.3
2016-12-11T03:55:55.133Z,915.25
2016-12-11T03:56:23.194Z,915.28
2016-12-11T03:56:52.317Z,915.23
2016-12-11T03:57:20.559Z,915.31
2016-12-11T03:57:49.887Z,915.22
2016-12-11T03:58:19.082Z,915.25
2016-12-11T03:58:47.311Z,915.3
2016-12-11T03:59:16.520Z,915.25
2016-12-11T03:59:45.881Z,915.31
2016-12-11T04:00:14.547Z,915.26
2016-12-11T04:00:42.800Z,915.21
2016-12-11T04:01:11.388Z,915.24
2016-12-11T04:01:40.482Z,915.25
2016-12-11T04:02:09.912Z,915.23
2016-12-11T04:02:37.949Z,915.14
2016-12-11T04:03:07.712Z,915.22
2016-12-11T04:03:36.643Z,915.21
2016-12-11T04:04:04.935Z,915.23
2016-12-11T04:04:33.288Z,915.22
2016-12-11T04:05:01.360Z,915.23
2016-12-11T04:05:29.593Z,915.24
2016-12-11T04:05:58.042Z,915.26
2016-12-11T04:06:26.330Z,915.2
2016-12-11T04:06:54.483Z,915.27
2016-12-11T04:07:25.020Z,915.19
2016-12-11T04:07:53.186Z,915.21
2016-12-11T04:08:21.414Z,915.22
2016-12-11T04:08:51.617Z,915.14
2016-12-11T04:09:19.927Z,915.2
2016-12-11T04:09:48.222Z,915.15
2016-12-11T04:10:16.476Z,915.16
2016-12-11T04:10:45.580Z,915.19
2016-12-11T04:11:14.308Z,915.16
2016-12-11T04:11:44.450Z,915.16
2016-12-11T04:12:13.558Z,915.06
2016-12-11T04:12:41.871Z,915.14
2016-12-11T04:13:10.943Z,915.18
2016-12-11T04:13:40.513Z,915.17
2016-12-11T04:14:08.907Z,915.12
2016-12-11T04:14:37.199Z,915.08
2016-12-11T04:15:06.039Z,915.07
2016-12-11T04:15:35.178Z,915.11
2016-12-11T04:16:03.422Z,915.13
2016-12-11T04:16:32.474Z,915.08
2016-12-11T04:17:00.952Z,915.07
2016-12-11T04:17:29.330Z,915.1
2016-12-11T04:17:57.744Z,915.04
2016-12-11T04:18:25.776Z,915.04
2016-12-11T04:18:54.135Z,915.04
2016-12-11T04:19:22.849Z,915
2016-12-11T04:19:51.231Z,915.02
2016-12-11T04:20:19.651Z,914.98
2016-12-11T04:20:48.675Z,914.94
2016-12-11T04:21:17.854Z,915.02
2016-12-11T04:21:46.818Z,914.96
2016-12-11T04:22:15.173Z,915
2016-12-11T04:22:43.519Z,915.03
2016-12-11T04:23:11.650Z,914.98
2016-12-11T04:23:42.250Z,914.88
2016-12-11T04:24:10.883Z,914.95
2016-12-11T04:24:40.065Z,914.92
2016-12-11T04:25:08.577Z,914.91
2016-12-11T04:25:37.846Z,914.76
2016-12-11T04:26:06.983Z,914.95
2016-12-11T04:26:35.738Z,914.79
2016-12-11T04:27:05.115Z,914.91
2016-12-11T04:27:33.259Z,914.91
2016-12-11T04:28:01.528Z,914.95
2016-12-11T04:28:31.782Z,914.93
2016-12-11T04:29:01.252Z,914.91
2016-12-11T04:29:30.158Z,915
2016-12-11T04:29:58.434Z,914.97
2016-12-11T04:30:26.751Z,914.99
2016-12-11T04:30:56.673Z,915.03
2016-12-11T04:31:26.026Z,915
2016-12-11T04:31:54.401Z,915.02
2016-12-11T04:32:23.292Z,915.04
2016-12-11T04:32:52.646Z,915.04
2016-12-11T04:33:21.171Z,915.02
2016-12-11T04:34:27.728Z,914.99
2016-12-11T04:34:56.087Z,915.04
2016-12-11T04:35:25.262Z,915.07
2016-12-11T04:35:54.129Z,915.02
2016-12-11T04:36:23.380Z,915.01
2016-12-11T04:36:52.535Z,914.98
2016-12-11T04:37:20.635Z,914.99
2016-12-11T04:37:50.533Z,914.91
2016-12-11T04:38:18.985Z,914.75
2016-12-11T04:38:48.193Z,914.99
2016-12-11T04:39:16.852Z,914.9
2016-12-11T04:39:46.114Z,914.95
2016-12-11T04:40:14.236Z,914.91
2016-12-11T04:40:43.081Z,914.91
2016-12-11T04:41:11.452Z,914.9
2016-12-11T04:41:39.500Z,914.88
2016-12-11T04:42:08.749Z,914.95
2016-12-11T04:42:37.423Z,914.9
2016-12-11T04:43:07.353Z,914.92
2016-12-11T04:43:39.454Z,914.93
2016-12-11T04:44:09.829Z,914.9
2016-12-11T04:44:38.464Z,914.93
2016-12-11T04:45:06.872Z,914.9
2016-12-11T04:45:35.493Z,914.84
2016-12-11T04:46:03.826Z,914.85
2016-12-11T04:46:33.273Z,914.78
2016-12-11T04:47:01.725Z,914.85
2016-12-11T04:47:30.104Z,914.85
2016-12-11T04:48:00.193Z,914.9
2016-12-11T04:48:30.175Z,914.76
2016-12-11T04:48:59.189Z,914.86
2016-12-11T04:49:28.092Z,914.86
2016-12-11T04:49:56.397Z,914.8
2016-12-11T04:50:24.664Z,914.89
2016-12-11T04:50:53.465Z,914.73
2016-12-11T04:51:23.594Z,914.84
2016-12-11T04:51:53.255Z,914.86
2016-12-11T04:52:22.133Z,914.89
2016-12-11T04:52:51.867Z,914.82
2016-12-11T04:53:20.255Z,914.83
2016-12-11T04:53:49.670Z,914.84
2016-12-11T04:54:19.275Z,914.89
2016-12-11T04:54:49.245Z,914.83
2016-12-11T04:55:18.093Z,914.79
2016-12-11T04:55:46.283Z,914.83
2016-12-11T04:56:14.602Z,914.77
2016-12-11T04:56:42.847Z,914.79
2016-12-11T04:57:10.976Z,914.8
2016-12-11T04:57:39.858Z,914.73
2016-12-11T04:58:09.019Z,914.7
2016-12-11T04:58:37.924Z,914.7
2016-12-11T04:59:05.994Z,914.63
2016-12-11T04:59:34.660Z,914.7
2016-12-11T05:00:04.653Z,914.6
2016-12-11T05:00:34.364Z,914.68
2016-12-11T05:01:02.778Z,914.54
2016-12-11T05:01:31.300Z,914.67
2016-12-11T05:01:59.400Z,914.71
2016-12-11T05:02:27.602Z,914.71
2016-12-11T05:02:55.820Z,914.69
2016-12-11T05:03:24.812Z,914.65
2016-12-11T05:03:53.450Z,914.54
2016-12-11T05:04:23.194Z,914.67
2016-12-11T05:04:51.548Z,914.59
2016-12-11T05:05:20.563Z,914.65
2016-12-11T05:05:48.931Z,914.63
2016-12-11T05:06:17.022Z,914.67
2016-12-11T05:06:45.732Z,914.62
2016-12-11T05:07:15.915Z,914.67
2016-12-11T05:07:45.119Z,914.4
2016-12-11T05:08:13.452Z,914.59
2016-12-11T05:08:41.548Z,914.57
2016-12-11T05:09:10.810Z,914.62
2016-12-11T05:09:40.565Z,914.53
2016-12-11T05:10:11.868Z,914.58
2016-12-11T05:10:40.373Z,914.42
2016-12-11T05:11:08.692Z,914.67
2016-12-11T05:11:36.641Z,914.5
2016-12-11T05:12:06.936Z,914.51
2016-12-11T05:12:35.306Z,914.55
2016-12-11T05:13:03.970Z,914.55
2016-12-11T05:13:32.463Z,914.58
2016-12-11T05:14:40.637Z,914.57
2016-12-11T05:15:09.415Z,914.57
2016-12-11T05:15:37.785Z,914.62
2016-12-11T05:16:06.105Z,914.56
2016-12-11T05:16:35.233Z,914.62
2016-12-11T05:17:03.185Z,914.64
2016-12-11T05:17:31.715Z,914.56
2016-12-11T05:17:59.808Z,914.59
2016-12-11T05:18:29.115Z,914.64
2016-12-11T05:18:57.883Z,914.67
2016-12-11T05:19:25.977Z,914.59
2016-12-11T05:19:54.585Z,914.62
2016-12-11T05:20:22.726Z,914.61
2016-12-11T05:20:51.774Z,914.71
2016-12-11T05:21:19.807Z,914.64
2016-12-11T05:21:48.906Z,914.72
2016-12-11T05:22:17.493Z,914.7
2016-12-11T05:22:46.411Z,914.73
2016-12-11T05:23:14.483Z,914.71
2016-12-11T05:23:43.730Z,914.68
2016-12-11T05:24:12.093Z,914.7
2016-12-11T05:24:40.429Z,914.66
2016-12-11T05:25:08.744Z,914.67
2016-12-11T05:25:37.420Z,914.64
2016-12-11T05:26:05.881Z,914.65
2016-12-11T05:26:34.589Z,914.72
2016-12-11T05:27:02.390Z,914.67
2016-12-11T05:27:30.722Z,914.69
2016-12-11T05:27:59.520Z,914.72
2016-12-11T05:28:28.588Z,914.61
2016-12-11T05:28:57.843Z,914.56
2016-12-11T05:29:27.273Z,914.65
2016-12-11T05:29:56.758Z,914.66
2016-12-11T05:30:26.402Z,914.66
2016-12-11T05:30:56.367Z,914.54
2016-12-11T05:31:25.167Z,914.7
2016-12-11T05:31:54.295Z,914.6
2016-12-11T05:32:23.279Z,914.52
2016-12-11T05:32:51.738Z,914.64
2016-12-11T05:33:20.929Z,914.5
2016-12-11T05:33:49.417Z,914.66
2016-12-11T05:34:17.778Z,914.63
2016-12-11T05:34:47.261Z,914.61
2016-12-11T05:35:16.084Z,914.63
2016-12-11T05:35:44.910Z,914.62
2016-12-11T05:36:13.007Z,914.6
2016-12-11T05:36:43.340Z,914.6
2016-12-11T05:37:12.829Z,914.55
2016-12-11T05:37:40.871Z,914.63
2016-12-11T05:38:09.538Z,914.55
2016-12-11T05:38:38.926Z,914.55
2016-12-11T05:39:07.263Z,914.58
2016-12-11T05:39:35.631Z,914.54
2016-12-11T05:40:03.959Z,914.55
2016-12-11T05:40:34.810Z,914.56
2016-12-11T05:41:04.600Z,914.51
2016-12-11T05:41:39.634Z,914.53
2016-12-11T05:42:07.969Z,914.51
2016-12-11T05:42:36.230Z,914.49
2016-12-11T05:43:04.651Z,914.53
2016-12-11T05:43:33.693Z,914.55
2016-12-11T05:44:01.913Z,914.53
2016-12-11T05:44:30.354Z,914.49
2016-12-11T05:44:59.734Z,914.49
2016-12-11T05:45:27.881Z,914.49
2016-12-11T05:45:56.213Z,914.48
2016-12-11T05:46:24.318Z,914.39
2016-12-11T05:46:53.816Z,914.47
2016-12-11T05:47:22.194Z,914.53
2016-12-11T05:47:51.437Z,914.48
2016-12-11T05:48:20.896Z,914.46
2016-12-11T05:48:49.125Z,914.52
2016-12-11T05:49:17.454Z,914.46
2016-12-11T05:49:47.638Z,914.42
2016-12-11T05:50:16.432Z,914.46
2016-12-11T05:50:44.913Z,914.48
2016-12-11T05:51:14.200Z,914.52
2016-12-11T05:51:42.328Z,914.52
2016-12-11T05:52:11.266Z,914.5
2016-12-11T05:52:39.632Z,914.51
2016-12-11T05:53:07.888Z,914.57
2016-12-11T05:53:37.222Z,914.59
2016-12-11T05:54:44.695Z,914.54
2016-12-11T05:55:14.349Z,914.53
2016-12-11T05:55:43.691Z,914.53
2016-12-11T05:56:12.728Z,914.5
2016-12-11T05:56:43.005Z,914.5
2016-12-11T05:57:11.114Z,914.51
2016-12-11T05:57:39.884Z,914.5
2016-12-11T05:58:08.095Z,914.51
2016-12-11T05:58:36.672Z,914.46
2016-12-11T05:59:06.151Z,914.48
2016-12-11T05:59:35.594Z,914.47
2016-12-11T06:00:04.972Z,914.48
2016-12-11T06:00:33.641Z,914.46
2016-12-11T06:01:02.659Z,914.4
2016-12-11T06:01:31.039Z,914.43
2016-12-11T06:02:00.132Z,914.39
2016-12-11T06:02:29.085Z,914.41
2016-12-11T06:02:57.838Z,914.41
2016-12-11T06:03:26.825Z,914.41
2016-12-11T06:03:55.141Z,914.46
2016-12-11T06:04:23.952Z,914.43
2016-12-11T06:04:52.833Z,914.43
2016-12-11T06:05:22.219Z,914.43
2016-12-11T06:05:50.857Z,914.4
2016-12-11T06:06:19.432Z,914.37